Roseville, Minnesota
Current Conditions -  °F | °C
As of 6:53 AM on Thursday 23 Oct 2014 (Local Time) from KSTP Reporting Station
Overcast Overcast  
Wind Chill: 51°   Ceiling: 1100
Heat Index: 51°   Visibility: 10mi
Dew Point: 49°   Wind: 6mph
Humidity: 92%   Direction: 160°SSE
Pressure: 30"   Gusts: NA
Location:  45.02°N, 93.15°W
Report Text: KSTP 231153Z 16005KT 10SM OVC011 11/09 A3000 RMK AO2 SLP158 60010 70011 T01060094 10128 20100 58004
Loading
Personal Weather Stations






























Interactive Weather Map
Tropical Storm Tracking
New forecast layout! Learn more

10-Day Weather Forecast

Advertisements
Track Severe Weather on mobile